WFL7610 OMDW-EPPO
Flight info
| Callsign | WFL7610 |
|---|---|
| Flight time | N/A |
| Altitude | 36000 |
| Route | NABIX P699 ORMID M556 ALKAN P699 SOGAT A453 BHR B457 NARMI J735 TAYMA N697 BPN H999 HIL N697 SOBAS/N0483F380 N697 RUKET L550 NOVPA J981 DATOK L550 GENIV/N0473F400 L550 APLON DCT TOMBI UA16 EKSEN UL610 OSGED UL620 APSER UL610 YAA UA16 FENER UT264 TUDBU Q26 ETUBA DCT ENIMA DCT LARMU DCT LENOV L623 MAVOT Z159 NILPU |
| Aircraft | A333/H-SDE1E2E3FGHIJ4J5M1P2RWXYZ/LB1D1 |
Departure
| Time | 2026-04-22 10:35 |
|---|---|
| Airport | Al Maktoum International Airport (OMDW) |
Arrival
| Time | N/A |
|---|---|
| Airport | Poznań-Ławica Airport (EPPO) |
| Time | Latitude | Longitude | Altitude | Speed | Heading |
|---|---|---|---|---|---|
| 2026-04-22 10:11 | 24.88613 | 55.15432 | 168 ft | 0 kts | 124° |
| 2026-04-22 10:22 | 24.88619 | 55.15423 | 168 ft | 3 kts | 121° |
| 2026-04-22 10:22 | 24.88628 | 55.15403 | 168 ft | 3 kts | 108° |
| 2026-04-22 10:22 | 24.88633 | 55.15382 | 168 ft | 3 kts | 92° |
| 2026-04-22 10:22 | 24.88632 | 55.15360 | 168 ft | 3 kts | 70° |
| 2026-04-22 10:23 | 24.88623 | 55.15342 | 170 ft | 3 kts | 41° |
| 2026-04-22 10:23 | 24.88616 | 55.15336 | 170 ft | 0 kts | 31° |
| 2026-04-22 10:25 | 24.88627 | 55.15343 | 168 ft | 5 kts | 31° |
| 2026-04-22 10:25 | 24.88662 | 55.15366 | 169 ft | 7 kts | 30° |
| 2026-04-22 10:25 | 24.88707 | 55.15395 | 167 ft | 8 kts | 30° |
| 2026-04-22 10:25 | 24.88761 | 55.15430 | 166 ft | 10 kts | 30° |
| 2026-04-22 10:26 | 24.88816 | 55.15467 | 167 ft | 11 kts | 32° |
| 2026-04-22 10:26 | 24.88882 | 55.15512 | 165 ft | 12 kts | 31° |
| 2026-04-22 10:26 | 24.88954 | 55.15561 | 165 ft | 13 kts | 31° |
| 2026-04-22 10:26 | 24.89031 | 55.15612 | 164 ft | 13 kts | 31° |
| 2026-04-22 10:27 | 24.89113 | 55.15668 | 163 ft | 14 kts | 31° |
| 2026-04-22 10:27 | 24.89199 | 55.15726 | 163 ft | 15 kts | 32° |
| 2026-04-22 10:27 | 24.89288 | 55.15783 | 163 ft | 15 kts | 32° |
| 2026-04-22 10:27 | 24.89377 | 55.15843 | 162 ft | 15 kts | 32° |
| 2026-04-22 10:28 | 24.89420 | 55.15931 | 162 ft | 13 kts | 101° |
| 2026-04-22 10:28 | 24.89378 | 55.16021 | 162 ft | 14 kts | 121° |
| 2026-04-22 10:28 | 24.89328 | 55.16112 | 162 ft | 14 kts | 121° |
| 2026-04-22 10:28 | 24.89277 | 55.16205 | 164 ft | 15 kts | 121° |
| 2026-04-22 10:29 | 24.89223 | 55.16302 | 162 ft | 15 kts | 122° |
| 2026-04-22 10:29 | 24.89167 | 55.16402 | 162 ft | 16 kts | 122° |
| 2026-04-22 10:29 | 24.89108 | 55.16505 | 162 ft | 16 kts | 122° |
| 2026-04-22 10:29 | 24.89050 | 55.16610 | 162 ft | 16 kts | 120° |
| 2026-04-22 10:30 | 24.88991 | 55.16719 | 162 ft | 17 kts | 121° |
| 2026-04-22 10:30 | 24.88930 | 55.16829 | 162 ft | 17 kts | 121° |
| 2026-04-22 10:30 | 24.88869 | 55.16939 | 165 ft | 17 kts | 121° |
| 2026-04-22 10:30 | 24.88805 | 55.17053 | 162 ft | 18 kts | 121° |
| 2026-04-22 10:31 | 24.88748 | 55.17156 | 162 ft | 18 kts | 121° |
| 2026-04-22 10:31 | 24.88684 | 55.17274 | 162 ft | 18 kts | 121° |
| 2026-04-22 10:31 | 24.88618 | 55.17394 | 162 ft | 18 kts | 121° |
| 2026-04-22 10:31 | 24.88548 | 55.17513 | 162 ft | 19 kts | 120° |
| 2026-04-22 10:32 | 24.88482 | 55.17636 | 162 ft | 19 kts | 121° |
| 2026-04-22 10:32 | 24.88415 | 55.17756 | 162 ft | 16 kts | 121° |
| 2026-04-22 10:32 | 24.88403 | 55.17856 | 162 ft | 8 kts | 44° |
| 2026-04-22 10:32 | 24.88458 | 55.17893 | 161 ft | 10 kts | 31° |
| 2026-04-22 10:33 | 24.88520 | 55.17934 | 161 ft | 11 kts | 31° |
| 2026-04-22 10:33 | 24.88587 | 55.17975 | 161 ft | 10 kts | 18° |
| 2026-04-22 10:33 | 24.88641 | 55.17944 | 161 ft | 9 kts | 309° |
| 2026-04-22 10:33 | 24.88682 | 55.17873 | 161 ft | 18 kts | 303° |
| 2026-04-22 10:34 | 24.88845 | 55.17581 | 164 ft | 73 kts | 301° |
| 2026-04-22 10:34 | 24.89200 | 55.16937 | 161 ft | 124 kts | 301° |
| 2026-04-22 10:34 | 24.89724 | 55.15991 | 161 ft | 169 kts | 301° |
| 2026-04-22 10:34 | 24.90367 | 55.14797 | 572 ft | 184 kts | 301° |
| 2026-04-22 10:35 | 24.91012 | 55.13583 | 1282 ft | 184 kts | 299° |
| 2026-04-22 10:35 | 24.91670 | 55.12365 | 1896 ft | 189 kts | 300° |
| 2026-04-22 10:35 | 24.92385 | 55.11077 | 2097 ft | 205 kts | 300° |
| 2026-04-22 10:35 | 24.93167 | 55.09665 | 2221 ft | 227 kts | 299° |
| 2026-04-22 10:36 | 24.94020 | 55.08116 | 2433 ft | 243 kts | 298° |
| 2026-04-22 10:36 | 24.94898 | 55.06527 | 2876 ft | 247 kts | 298° |
| 2026-04-22 10:36 | 24.95793 | 55.04901 | 3358 ft | 248 kts | 296° |
| 2026-04-22 10:36 | 24.96687 | 55.03276 | 3894 ft | 246 kts | 296° |
| 2026-04-22 10:37 | 24.97576 | 55.01664 | 4429 ft | 247 kts | 296° |
| 2026-04-22 10:37 | 24.99372 | 54.98415 | 5483 ft | 250 kts | 296° |
| 2026-04-22 10:37 | 25.00281 | 54.96768 | 5952 ft | 253 kts | 296° |
| 2026-04-22 10:38 | 25.01191 | 54.95117 | 6385 ft | 256 kts | 296° |
| 2026-04-22 10:38 | 25.02122 | 54.93429 | 6871 ft | 257 kts | 296° |
| 2026-04-22 10:38 | 25.03056 | 54.91734 | 7264 ft | 263 kts | 296° |
| 2026-04-22 10:38 | 25.04026 | 54.89962 | 7461 ft | 276 kts | 296° |
| 2026-04-22 10:39 | 25.04341 | 54.89388 | 7547 ft | 280 kts | 296° |
| 2026-04-22 10:39 | 25.04442 | 54.89203 | 7563 ft | 280 kts | 296° |
| 2026-04-22 10:39 | 25.05452 | 54.87361 | 7920 ft | 286 kts | 296° |
| 2026-04-22 10:39 | 25.06486 | 54.85480 | 8358 ft | 288 kts | 297° |
| 2026-04-22 10:40 | 25.07527 | 54.83587 | 8857 ft | 289 kts | 297° |
| 2026-04-22 10:40 | 25.08577 | 54.81680 | 9355 ft | 290 kts | 297° |
| 2026-04-22 10:40 | 25.09626 | 54.79771 | 9834 ft | 292 kts | 297° |
| 2026-04-22 10:40 | 25.10614 | 54.77778 | 10089 ft | 301 kts | 291° |
| 2026-04-22 10:41 | 25.11531 | 54.75648 | 10246 ft | 313 kts | 290° |
| 2026-04-22 10:41 | 25.12463 | 54.73417 | 10394 ft | 325 kts | 290° |
| 2026-04-22 10:41 | 25.13425 | 54.71107 | 10553 ft | 337 kts | 290° |
| 2026-04-22 10:41 | 25.14422 | 54.68721 | 10691 ft | 348 kts | 291° |
| 2026-04-22 10:42 | 25.15455 | 54.66259 | 10825 ft | 358 kts | 291° |
| 2026-04-22 10:42 | 25.16503 | 54.63764 | 10959 ft | 368 kts | 291° |
| 2026-04-22 10:42 | 25.17591 | 54.61179 | 11198 ft | 373 kts | 291° |
| 2026-04-22 10:42 | 25.18690 | 54.58569 | 11550 ft | 375 kts | 291° |
| 2026-04-22 10:43 | 25.19793 | 54.55945 | 11932 ft | 377 kts | 292° |
| 2026-04-22 10:43 | 25.20862 | 54.53296 | 12319 ft | 377 kts | 289° |
| 2026-04-22 10:43 | 25.21733 | 54.50559 | 12687 ft | 378 kts | 285° |
| 2026-04-22 10:43 | 25.22461 | 54.47798 | 13067 ft | 379 kts | 283° |
| 2026-04-22 10:44 | 25.23136 | 54.44978 | 13431 ft | 381 kts | 282° |
| 2026-04-22 10:44 | 25.23798 | 54.42133 | 13790 ft | 382 kts | 282° |
| 2026-04-22 10:44 | 25.24469 | 54.39279 | 14147 ft | 383 kts | 282° |
| 2026-04-22 10:44 | 25.25154 | 54.36431 | 14515 ft | 383 kts | 282° |
| 2026-04-22 10:45 | 25.25846 | 54.33611 | 14879 ft | 384 kts | 283° |
| 2026-04-22 10:45 | 25.26555 | 54.30753 | 15194 ft | 386 kts | 283° |
| 2026-04-22 10:45 | 25.27274 | 54.27883 | 15517 ft | 387 kts | 283° |
| 2026-04-22 10:45 | 25.28000 | 54.25007 | 15850 ft | 389 kts | 283° |
| 2026-04-22 10:46 | 25.28717 | 54.22159 | 16180 ft | 390 kts | 283° |
| 2026-04-22 10:46 | 25.29441 | 54.19264 | 16500 ft | 391 kts | 283° |
| 2026-04-22 10:46 | 25.30165 | 54.16354 | 16815 ft | 392 kts | 283° |
| 2026-04-22 10:46 | 25.30880 | 54.13441 | 17125 ft | 393 kts | 283° |
| 2026-04-22 10:47 | 25.31550 | 54.10499 | 17425 ft | 394 kts | 282° |
| 2026-04-22 10:47 | 25.32184 | 54.07546 | 17721 ft | 396 kts | 281° |
| 2026-04-22 10:47 | 25.32797 | 54.04614 | 18001 ft | 397 kts | 281° |
| 2026-04-22 10:47 | 25.33414 | 54.01633 | 18256 ft | 398 kts | 281° |
| 2026-04-22 10:48 | 25.34035 | 53.98641 | 18484 ft | 400 kts | 281° |
| 2026-04-22 10:48 | 25.34661 | 53.95638 | 18681 ft | 402 kts | 281° |
| 2026-04-22 10:48 | 25.35080 | 53.93638 | 18826 ft | 403 kts | 281° |
| 2026-04-22 10:48 | 25.35715 | 53.90614 | 19055 ft | 404 kts | 281° |
| 2026-04-22 10:49 | 25.36351 | 53.87588 | 19306 ft | 404 kts | 281° |
| 2026-04-22 10:49 | 25.36990 | 53.84557 | 19578 ft | 404 kts | 281° |
| 2026-04-22 10:49 | 25.37628 | 53.81526 | 19784 ft | 405 kts | 281° |
| 2026-04-22 10:49 | 25.38268 | 53.78482 | 19985 ft | 407 kts | 281° |
| 2026-04-22 10:50 | 25.38910 | 53.75429 | 20184 ft | 408 kts | 281° |
| 2026-04-22 10:50 | 25.39553 | 53.72368 | 20394 ft | 409 kts | 280° |
| 2026-04-22 10:50 | 25.40189 | 53.69338 | 20618 ft | 409 kts | 280° |
| 2026-04-22 10:50 | 25.40833 | 53.66263 | 20806 ft | 411 kts | 280° |
| 2026-04-22 10:51 | 25.41479 | 53.63175 | 21009 ft | 412 kts | 280° |
| 2026-04-22 10:51 | 25.42124 | 53.60083 | 21199 ft | 413 kts | 280° |
| 2026-04-22 10:51 | 25.42774 | 53.56968 | 21398 ft | 414 kts | 280° |
| 2026-04-22 10:51 | 25.43422 | 53.53859 | 21586 ft | 416 kts | 280° |
| 2026-04-22 10:52 | 25.44075 | 53.50722 | 21789 ft | 417 kts | 280° |
| 2026-04-22 10:52 | 25.44717 | 53.47633 | 21974 ft | 418 kts | 280° |
| 2026-04-22 10:52 | 25.45370 | 53.44486 | 22172 ft | 419 kts | 280° |
| 2026-04-22 10:52 | 25.46025 | 53.41330 | 22356 ft | 420 kts | 280° |
| 2026-04-22 10:53 | 25.46672 | 53.38205 | 22558 ft | 421 kts | 279° |
| 2026-04-22 10:53 | 25.47327 | 53.35044 | 22772 ft | 422 kts | 279° |
| 2026-04-22 10:53 | 25.47985 | 53.31861 | 22949 ft | 423 kts | 279° |
| 2026-04-22 10:53 | 25.48642 | 53.28680 | 23131 ft | 424 kts | 279° |
| 2026-04-22 10:54 | 25.49299 | 53.25493 | 23301 ft | 425 kts | 279° |
| 2026-04-22 10:54 | 25.49957 | 53.22296 | 23469 ft | 426 kts | 279° |
| 2026-04-22 10:54 | 25.50616 | 53.19094 | 23653 ft | 426 kts | 279° |
| 2026-04-22 10:54 | 25.51264 | 53.15934 | 23808 ft | 427 kts | 279° |
| 2026-04-22 10:55 | 25.51922 | 53.12720 | 23974 ft | 428 kts | 279° |
| 2026-04-22 10:55 | 25.52581 | 53.09502 | 24138 ft | 429 kts | 279° |
| 2026-04-22 10:55 | 25.53239 | 53.06282 | 24305 ft | 429 kts | 279° |
| 2026-04-22 10:55 | 25.53898 | 53.03052 | 24483 ft | 430 kts | 279° |
| 2026-04-22 10:56 | 25.54557 | 52.99816 | 24650 ft | 430 kts | 280° |
| 2026-04-22 10:56 | 25.55215 | 52.96589 | 24884 ft | 429 kts | 280° |
| 2026-04-22 10:56 | 25.55906 | 52.93368 | 25047 ft | 431 kts | 283° |
| 2026-04-22 10:56 | 25.56913 | 52.90218 | 25218 ft | 435 kts | 290° |
| 2026-04-22 10:57 | 25.58190 | 52.87212 | 25401 ft | 437 kts | 292° |
| 2026-04-22 10:57 | 25.59579 | 52.84199 | 25593 ft | 438 kts | 294° |
| 2026-04-22 10:57 | 25.61020 | 52.81214 | 25755 ft | 439 kts | 295° |
| 2026-04-22 10:57 | 25.62490 | 52.78231 | 25935 ft | 440 kts | 295° |
| 2026-04-22 10:58 | 25.63964 | 52.75254 | 26121 ft | 440 kts | 295° |
| 2026-04-22 10:58 | 25.65434 | 52.72277 | 26371 ft | 439 kts | 295° |
| 2026-04-22 10:58 | 25.66899 | 52.69297 | 26554 ft | 440 kts | 295° |
| 2026-04-22 10:58 | 25.68342 | 52.66345 | 26707 ft | 441 kts | 295° |
| 2026-04-22 10:59 | 25.69800 | 52.63350 | 26881 ft | 442 kts | 295° |
| 2026-04-22 10:59 | 25.71256 | 52.60352 | 27050 ft | 443 kts | 295° |
| 2026-04-22 10:59 | 25.72721 | 52.57334 | 27230 ft | 443 kts | 295° |
| 2026-04-22 10:59 | 25.74189 | 52.54305 | 27398 ft | 444 kts | 295° |
| 2026-04-22 11:00 | 25.75654 | 52.51280 | 27571 ft | 445 kts | 294° |
| 2026-04-22 11:00 | 25.77079 | 52.48288 | 27775 ft | 444 kts | 294° |
| 2026-04-22 11:00 | 25.78503 | 52.45242 | 27954 ft | 445 kts | 294° |
| 2026-04-22 11:00 | 25.79922 | 52.42182 | 28113 ft | 446 kts | 294° |
| 2026-04-22 11:01 | 25.81337 | 52.39118 | 28267 ft | 447 kts | 294° |
| 2026-04-22 11:01 | 25.82759 | 52.36040 | 28421 ft | 448 kts | 294° |
| 2026-04-22 11:01 | 25.84184 | 52.32959 | 28580 ft | 448 kts | 294° |
| 2026-04-22 11:01 | 25.85610 | 52.29877 | 28738 ft | 449 kts | 294° |
| 2026-04-22 11:02 | 25.87036 | 52.26798 | 28964 ft | 448 kts | 294° |
| 2026-04-22 11:02 | 25.88458 | 52.23733 | 29256 ft | 446 kts | 294° |
| 2026-04-22 11:02 | 25.89877 | 52.20670 | 29409 ft | 447 kts | 294° |
| 2026-04-22 11:02 | 25.91299 | 52.17601 | 29636 ft | 446 kts | 294° |
| 2026-04-22 11:03 | 25.92718 | 52.14537 | 29902 ft | 444 kts | 294° |
| 2026-04-22 11:03 | 25.94111 | 52.11525 | 30116 ft | 443 kts | 294° |
| 2026-04-22 11:03 | 25.95518 | 52.08483 | 30326 ft | 442 kts | 294° |
| 2026-04-22 11:03 | 25.96920 | 52.05446 | 30527 ft | 441 kts | 294° |
| 2026-04-22 11:04 | 25.98319 | 52.02415 | 30833 ft | 438 kts | 294° |
| 2026-04-22 11:04 | 25.99700 | 51.99423 | 31197 ft | 433 kts | 294° |
| 2026-04-22 11:04 | 26.01076 | 51.96439 | 31468 ft | 432 kts | 294° |
| 2026-04-22 11:04 | 26.02448 | 51.93459 | 31718 ft | 432 kts | 293° |
| 2026-04-22 11:05 | 26.03826 | 51.90463 | 31776 ft | 437 kts | 293° |
| 2026-04-22 11:05 | 26.05195 | 51.87482 | 31970 ft | 438 kts | 293° |
| 2026-04-22 11:05 | 26.06578 | 51.84471 | 32308 ft | 436 kts | 293° |
| 2026-04-22 11:05 | 26.07956 | 51.81472 | 32649 ft | 434 kts | 293° |
| 2026-04-22 11:06 | 26.09326 | 51.78492 | 33076 ft | 429 kts | 293° |
| 2026-04-22 11:06 | 26.10679 | 51.75547 | 33506 ft | 426 kts | 293° |
| 2026-04-22 11:06 | 26.12026 | 51.72617 | 33823 ft | 425 kts | 293° |
| 2026-04-22 11:06 | 26.13352 | 51.69728 | 34069 ft | 424 kts | 293° |
| 2026-04-22 11:07 | 26.14690 | 51.66813 | 34356 ft | 422 kts | 293° |
| 2026-04-22 11:07 | 26.16022 | 51.63910 | 34672 ft | 420 kts | 293° |
| 2026-04-22 11:07 | 26.17348 | 51.61020 | 34952 ft | 419 kts | 293° |
| 2026-04-22 11:07 | 26.18673 | 51.58126 | 35103 ft | 420 kts | 293° |
| 2026-04-22 11:08 | 26.20001 | 51.55226 | 35420 ft | 417 kts | 293° |
| 2026-04-22 11:08 | 26.21311 | 51.52365 | 35845 ft | 412 kts | 293° |
| 2026-04-22 11:08 | 26.22607 | 51.49535 | 36164 ft | 409 kts | 293° |
| 2026-04-22 11:08 | 26.23897 | 51.46715 | 36425 ft | 407 kts | 293° |
| 2026-04-22 11:09 | 26.25181 | 51.43904 | 36656 ft | 406 kts | 293° |
| 2026-04-22 11:09 | 26.26444 | 51.41136 | 36896 ft | 405 kts | 292° |
| 2026-04-22 11:09 | 26.27719 | 51.38340 | 37128 ft | 403 kts | 292° |
| 2026-04-22 11:09 | 26.28989 | 51.35556 | 37376 ft | 402 kts | 293° |
| 2026-04-22 11:10 | 26.30257 | 51.32779 | 37628 ft | 400 kts | 293° |
| 2026-04-22 11:10 | 26.31488 | 51.30000 | 37839 ft | 399 kts | 290° |
| 2026-04-22 11:10 | 26.32472 | 51.27104 | 37855 ft | 399 kts | 284° |
| 2026-04-22 11:11 | 26.33346 | 51.21040 | 37855 ft | 396 kts | 270° |
| 2026-04-22 11:11 | 26.32886 | 51.14951 | 37853 ft | 398 kts | 264° |
| 2026-04-22 11:12 | 26.32096 | 51.08835 | 37853 ft | 399 kts | 263° |
| 2026-04-22 11:12 | 26.31267 | 51.02719 | 37859 ft | 399 kts | 263° |
| 2026-04-22 11:13 | 26.30462 | 50.96594 | 37859 ft | 399 kts | 263° |
| 2026-04-22 11:13 | 26.29606 | 50.90507 | 37857 ft | 399 kts | 262° |
| 2026-04-22 11:14 | 26.28662 | 50.84406 | 37857 ft | 398 kts | 262° |
| 2026-04-22 11:14 | 26.27716 | 50.78383 | 37858 ft | 396 kts | 262° |
| 2026-04-22 11:15 | 26.26775 | 50.72344 | 37856 ft | 395 kts | 262° |
| 2026-04-22 11:15 | 26.26048 | 50.66272 | 37856 ft | 394 kts | 269° |
| 2026-04-22 11:16 | 26.26404 | 50.60194 | 37863 ft | 393 kts | 276° |
| 2026-04-22 11:16 | 26.27147 | 50.54143 | 37881 ft | 393 kts | 277° |
| 2026-04-22 11:17 | 26.27951 | 50.48149 | 37877 ft | 393 kts | 277° |
| 2026-04-22 11:17 | 26.28754 | 50.42088 | 37854 ft | 396 kts | 277° |
| 2026-04-22 11:18 | 26.29542 | 50.36014 | 37845 ft | 396 kts | 277° |
| 2026-04-22 11:18 | 26.30967 | 50.30078 | 37840 ft | 398 kts | 286° |
| 2026-04-22 11:19 | 26.32935 | 50.24340 | 37832 ft | 399 kts | 288° |
| 2026-04-22 11:19 | 26.35017 | 50.18602 | 37828 ft | 399 kts | 288° |
| 2026-04-22 11:20 | 26.37101 | 50.12875 | 37834 ft | 398 kts | 288° |
| 2026-04-22 11:20 | 26.39168 | 50.07148 | 37845 ft | 398 kts | 288° |
| 2026-04-22 11:21 | 26.41236 | 50.01383 | 37854 ft | 400 kts | 288° |
| 2026-04-22 11:21 | 26.43290 | 49.95643 | 37862 ft | 400 kts | 288° |
| 2026-04-22 11:22 | 26.45355 | 49.89867 | 37857 ft | 400 kts | 287° |
| 2026-04-22 11:22 | 26.47405 | 49.84126 | 37856 ft | 400 kts | 287° |
| 2026-04-22 11:23 | 26.49424 | 49.78340 | 37858 ft | 398 kts | 284° |
| 2026-04-22 11:23 | 26.51031 | 49.72420 | 37857 ft | 398 kts | 282° |
| 2026-04-22 11:24 | 26.52537 | 49.66500 | 37889 ft | 399 kts | 282° |
| 2026-04-22 11:24 | 26.54034 | 49.60520 | 37889 ft | 399 kts | 282° |
| 2026-04-22 11:25 | 26.55522 | 49.54588 | 37889 ft | 398 kts | 282° |
| 2026-04-22 11:25 | 26.57020 | 49.48628 | 37887 ft | 397 kts | 282° |
| 2026-04-22 11:26 | 26.58510 | 49.42691 | 37892 ft | 396 kts | 282° |
| 2026-04-22 11:26 | 26.59996 | 49.36763 | 37892 ft | 396 kts | 282° |
| 2026-04-22 11:27 | 26.61482 | 49.30819 | 37891 ft | 398 kts | 282° |
| 2026-04-22 11:27 | 26.62960 | 49.24895 | 37891 ft | 397 kts | 282° |
| 2026-04-22 11:28 | 26.64438 | 49.18964 | 37891 ft | 395 kts | 282° |
| 2026-04-22 11:28 | 26.65912 | 49.13034 | 37894 ft | 395 kts | 282° |
| 2026-04-22 11:29 | 26.67385 | 49.07096 | 37887 ft | 395 kts | 282° |
| 2026-04-22 11:29 | 26.68841 | 49.01218 | 37895 ft | 393 kts | 282° |
| 2026-04-22 11:30 | 26.70300 | 48.95318 | 37923 ft | 393 kts | 282° |
| 2026-04-22 11:30 | 26.71752 | 48.89426 | 37900 ft | 393 kts | 282° |
| 2026-04-22 11:31 | 26.73205 | 48.83528 | 37902 ft | 393 kts | 282° |
| 2026-04-22 11:31 | 26.74647 | 48.77657 | 37903 ft | 393 kts | 282° |
| 2026-04-22 11:32 | 26.75983 | 48.71722 | 37905 ft | 391 kts | 277° |
| 2026-04-22 11:32 | 26.76325 | 48.65673 | 37904 ft | 389 kts | 269° |
| 2026-04-22 11:33 | 26.76221 | 48.59611 | 37908 ft | 389 kts | 268° |
| 2026-04-22 11:33 | 26.76034 | 48.53606 | 37911 ft | 388 kts | 267° |
| 2026-04-22 11:34 | 26.75850 | 48.47561 | 37912 ft | 388 kts | 268° |
| 2026-04-22 11:34 | 26.75678 | 48.41516 | 37913 ft | 388 kts | 268° |
| 2026-04-22 11:35 | 26.75512 | 48.35525 | 37917 ft | 387 kts | 268° |
| 2026-04-22 11:35 | 26.75346 | 48.29506 | 37922 ft | 387 kts | 268° |
| 2026-04-22 11:36 | 26.75178 | 48.23491 | 37922 ft | 387 kts | 268° |
| 2026-04-22 11:36 | 26.75007 | 48.17470 | 37925 ft | 386 kts | 268° |
| 2026-04-22 11:37 | 26.74834 | 48.11509 | 37930 ft | 385 kts | 268° |
| 2026-04-22 11:37 | 26.74658 | 48.05514 | 37927 ft | 385 kts | 268° |
| 2026-04-22 11:38 | 26.74480 | 47.99518 | 37929 ft | 385 kts | 267° |
| 2026-04-22 11:38 | 26.74240 | 47.91586 | 37936 ft | 384 kts | 267° |
| 2026-04-22 11:39 | 26.74291 | 47.85604 | 37939 ft | 385 kts | 271° |
| 2026-04-22 11:39 | 26.74610 | 47.78646 | 37940 ft | 385 kts | 271° |
| 2026-04-22 11:40 | 26.74869 | 47.73626 | 37938 ft | 385 kts | 271° |
| 2026-04-22 11:40 | 26.75176 | 47.67636 | 37942 ft | 385 kts | 271° |
| 2026-04-22 11:41 | 26.75474 | 47.61693 | 37945 ft | 385 kts | 271° |
| 2026-04-22 11:41 | 26.75768 | 47.55706 | 37944 ft | 385 kts | 271° |
| 2026-04-22 11:42 | 26.76058 | 47.49733 | 37947 ft | 384 kts | 271° |
| 2026-04-22 11:42 | 26.76346 | 47.43762 | 37950 ft | 384 kts | 271° |
| 2026-04-22 11:43 | 26.76704 | 47.37795 | 37944 ft | 385 kts | 275° |
| 2026-04-22 11:43 | 26.77513 | 47.31910 | 37947 ft | 384 kts | 276° |
| 2026-04-22 11:44 | 26.78418 | 47.25997 | 37951 ft | 385 kts | 277° |
| 2026-04-22 11:44 | 26.79343 | 47.20072 | 37950 ft | 385 kts | 277° |
| 2026-04-22 11:45 | 26.80252 | 47.14196 | 37947 ft | 385 kts | 277° |
| 2026-04-22 11:45 | 26.81156 | 47.08302 | 37953 ft | 383 kts | 277° |
| 2026-04-22 11:46 | 26.82055 | 47.02408 | 37953 ft | 383 kts | 276° |
| 2026-04-22 11:46 | 26.82951 | 46.96519 | 37956 ft | 383 kts | 276° |
| 2026-04-22 11:47 | 26.83836 | 46.90680 | 37948 ft | 383 kts | 276° |
| 2026-04-22 11:47 | 26.84726 | 46.84799 | 37947 ft | 383 kts | 276° |
| 2026-04-22 11:48 | 26.85615 | 46.78907 | 37949 ft | 383 kts | 276° |
| 2026-04-22 11:48 | 26.86496 | 46.73047 | 37960 ft | 383 kts | 276° |
| 2026-04-22 11:49 | 26.87380 | 46.67158 | 37957 ft | 383 kts | 276° |
| 2026-04-22 11:49 | 26.88263 | 46.61252 | 37947 ft | 383 kts | 276° |
| 2026-04-22 11:50 | 26.89138 | 46.55388 | 37958 ft | 383 kts | 276° |
| 2026-04-22 11:50 | 26.90013 | 46.49506 | 37951 ft | 382 kts | 276° |
| 2026-04-22 11:51 | 26.90883 | 46.43636 | 37961 ft | 382 kts | 276° |
| 2026-04-22 11:51 | 26.91747 | 46.37795 | 37955 ft | 382 kts | 276° |
| 2026-04-22 11:52 | 26.92618 | 46.31920 | 37959 ft | 382 kts | 276° |
| 2026-04-22 11:52 | 26.93487 | 46.26044 | 37958 ft | 382 kts | 276° |
| 2026-04-22 11:53 | 26.94354 | 46.20166 | 37957 ft | 382 kts | 276° |
| 2026-04-22 11:53 | 26.95217 | 46.14293 | 37957 ft | 381 kts | 276° |
| 2026-04-22 11:54 | 26.96077 | 46.08425 | 37958 ft | 381 kts | 276° |
| 2026-04-22 11:54 | 26.96930 | 46.02591 | 37964 ft | 381 kts | 276° |
| 2026-04-22 11:55 | 26.97787 | 45.96710 | 37947 ft | 382 kts | 276° |
| 2026-04-22 11:55 | 26.98639 | 45.90833 | 37957 ft | 381 kts | 276° |
| 2026-04-22 11:56 | 26.99484 | 45.84997 | 37954 ft | 381 kts | 276° |
| 2026-04-22 11:56 | 27.00334 | 45.79117 | 37955 ft | 381 kts | 276° |
| 2026-04-22 11:57 | 27.01181 | 45.73228 | 37956 ft | 381 kts | 276° |
| 2026-04-22 11:57 | 27.02019 | 45.67393 | 37960 ft | 381 kts | 276° |
| 2026-04-22 11:58 | 27.02860 | 45.61515 | 37958 ft | 381 kts | 276° |
| 2026-04-22 11:58 | 27.03694 | 45.55664 | 37953 ft | 382 kts | 276° |
| 2026-04-22 11:59 | 27.04535 | 45.49758 | 37955 ft | 382 kts | 276° |
| 2026-04-22 11:59 | 27.05352 | 45.43903 | 37955 ft | 382 kts | 275° |
| 2026-04-22 12:00 | 27.06047 | 45.37999 | 37951 ft | 381 kts | 274° |
| 2026-04-22 12:00 | 27.06691 | 45.32089 | 37956 ft | 381 kts | 274° |
| 2026-04-22 12:01 | 27.07336 | 45.26172 | 37955 ft | 381 kts | 274° |
| 2026-04-22 12:01 | 27.07990 | 45.20252 | 37957 ft | 382 kts | 274° |
| 2026-04-22 12:02 | 27.08642 | 45.14364 | 37954 ft | 383 kts | 274° |
| 2026-04-22 12:02 | 27.09298 | 45.08424 | 37954 ft | 383 kts | 274° |
| 2026-04-22 12:03 | 27.09951 | 45.02490 | 37958 ft | 383 kts | 274° |
| 2026-04-22 12:03 | 27.10600 | 44.96551 | 37959 ft | 383 kts | 274° |
| 2026-04-22 12:04 | 27.11243 | 44.90653 | 37958 ft | 383 kts | 274° |
| 2026-04-22 12:04 | 27.11889 | 44.84708 | 37955 ft | 383 kts | 274° |
| 2026-04-22 12:05 | 27.12531 | 44.78764 | 37956 ft | 383 kts | 274° |
| 2026-04-22 12:05 | 27.13171 | 44.72820 | 37957 ft | 383 kts | 274° |
| 2026-04-22 12:06 | 27.13805 | 44.66912 | 37956 ft | 383 kts | 274° |
| 2026-04-22 12:06 | 27.14441 | 44.60969 | 37968 ft | 383 kts | 274° |
| 2026-04-22 12:07 | 27.15074 | 44.55032 | 37950 ft | 383 kts | 274° |
| 2026-04-22 12:07 | 27.15706 | 44.49081 | 37956 ft | 383 kts | 274° |
| 2026-04-22 12:08 | 27.16330 | 44.43181 | 37954 ft | 383 kts | 274° |
| 2026-04-22 12:08 | 27.16955 | 44.37236 | 37955 ft | 383 kts | 274° |
| 2026-04-22 12:09 | 27.17575 | 44.31280 | 37955 ft | 383 kts | 274° |
| 2026-04-22 12:09 | 27.18186 | 44.25373 | 37956 ft | 383 kts | 274° |
| 2026-04-22 12:10 | 27.18799 | 44.19422 | 37960 ft | 383 kts | 274° |
| 2026-04-22 12:10 | 27.19409 | 44.13475 | 37957 ft | 383 kts | 274° |
| 2026-04-22 12:11 | 27.20018 | 44.07523 | 37959 ft | 383 kts | 274° |
| 2026-04-22 12:11 | 27.20623 | 44.01574 | 37963 ft | 383 kts | 273° |
| 2026-04-22 12:12 | 27.21223 | 43.95658 | 37960 ft | 384 kts | 273° |
| 2026-04-22 12:12 | 27.21825 | 43.89696 | 37960 ft | 384 kts | 273° |
| 2026-04-22 12:13 | 27.22424 | 43.83733 | 37943 ft | 383 kts | 273° |
| 2026-04-22 12:13 | 27.23020 | 43.77777 | 37961 ft | 383 kts | 273° |
| 2026-04-22 12:14 | 27.23613 | 43.71830 | 37961 ft | 383 kts | 273° |
| 2026-04-22 12:14 | 27.24204 | 43.65881 | 37962 ft | 383 kts | 273° |
| 2026-04-22 12:15 | 27.24790 | 43.59964 | 37965 ft | 383 kts | 273° |
| 2026-04-22 12:15 | 27.25377 | 43.54011 | 37964 ft | 383 kts | 273° |
| 2026-04-22 12:16 | 27.25962 | 43.48055 | 37961 ft | 383 kts | 273° |
| 2026-04-22 12:16 | 27.26544 | 43.42099 | 37979 ft | 383 kts | 273° |
| 2026-04-22 12:17 | 27.27124 | 43.36148 | 37964 ft | 383 kts | 273° |
| 2026-04-22 12:17 | 27.27700 | 43.30199 | 37965 ft | 383 kts | 273° |
| 2026-04-22 12:18 | 27.28274 | 43.24249 | 37965 ft | 383 kts | 273° |
| 2026-04-22 12:18 | 27.28842 | 43.18339 | 37970 ft | 383 kts | 273° |
| 2026-04-22 12:19 | 27.29410 | 43.12392 | 37971 ft | 382 kts | 273° |
| 2026-04-22 12:19 | 27.29976 | 43.06444 | 37955 ft | 382 kts | 273° |
| 2026-04-22 12:20 | 27.30540 | 43.00485 | 37981 ft | 382 kts | 273° |
| 2026-04-22 12:20 | 27.31100 | 42.94550 | 37963 ft | 382 kts | 273° |
| 2026-04-22 12:21 | 27.31657 | 42.88612 | 37971 ft | 382 kts | 273° |
| 2026-04-22 12:21 | 27.32212 | 42.82672 | 37967 ft | 381 kts | 273° |
| 2026-04-22 12:22 | 27.32761 | 42.76772 | 37972 ft | 382 kts | 273° |
| 2026-04-22 12:22 | 27.33311 | 42.70827 | 37974 ft | 382 kts | 273° |
| 2026-04-22 12:23 | 27.33859 | 42.64884 | 37976 ft | 382 kts | 273° |
| 2026-04-22 12:23 | 27.34405 | 42.58933 | 37975 ft | 382 kts | 272° |
| 2026-04-22 12:24 | 27.34944 | 42.53024 | 37982 ft | 382 kts | 272° |
| 2026-04-22 12:24 | 27.35484 | 42.47075 | 37974 ft | 382 kts | 272° |
| 2026-04-22 12:25 | 27.36022 | 42.41131 | 37988 ft | 382 kts | 272° |
| 2026-04-22 12:25 | 27.36554 | 42.35219 | 37982 ft | 382 kts | 272° |
| 2026-04-22 12:26 | 27.37086 | 42.29268 | 37981 ft | 382 kts | 272° |
| 2026-04-22 12:26 | 27.37528 | 42.24310 | 37994 ft | 381 kts | 272° |
| 2026-04-22 12:27 | 27.38055 | 42.18365 | 38006 ft | 381 kts | 272° |
| 2026-04-22 12:27 | 27.38576 | 42.12463 | 37985 ft | 381 kts | 272° |
| 2026-04-22 12:28 | 27.39097 | 42.06532 | 37999 ft | 381 kts | 272° |
| 2026-04-22 12:28 | 27.39614 | 42.00608 | 37987 ft | 381 kts | 272° |
| 2026-04-22 12:29 | 27.40131 | 41.94673 | 38000 ft | 380 kts | 272° |
| 2026-04-22 12:29 | 27.40644 | 41.88749 | 38000 ft | 380 kts | 272° |
| 2026-04-22 12:30 | 27.41409 | 41.79846 | 38003 ft | 381 kts | 272° |
| 2026-04-22 12:31 | 27.41913 | 41.73946 | 38006 ft | 381 kts | 272° |
| 2026-04-22 12:31 | 27.42534 | 41.68014 | 37992 ft | 383 kts | 277° |
| 2026-04-22 12:32 | 27.43639 | 41.62143 | 37992 ft | 383 kts | 278° |
| 2026-04-22 12:32 | 27.45437 | 41.53397 | 38000 ft | 384 kts | 278° |
| 2026-04-22 12:33 | 27.46650 | 41.47525 | 37997 ft | 384 kts | 278° |
| 2026-04-22 12:33 | 27.47844 | 41.41691 | 37998 ft | 384 kts | 278° |
| 2026-04-22 12:34 | 27.49041 | 41.35816 | 37985 ft | 384 kts | 278° |
| 2026-04-22 12:34 | 27.50230 | 41.29959 | 37994 ft | 383 kts | 278° |
| 2026-04-22 12:35 | 27.51418 | 41.24101 | 37995 ft | 384 kts | 278° |
| 2026-04-22 12:35 | 27.52604 | 41.18238 | 37991 ft | 384 kts | 278° |
| 2026-04-22 12:36 | 27.53779 | 41.12411 | 37999 ft | 383 kts | 278° |
| 2026-04-22 12:36 | 27.54963 | 41.06535 | 37984 ft | 384 kts | 278° |
| 2026-04-22 12:37 | 27.56136 | 41.00694 | 37985 ft | 384 kts | 278° |
| 2026-04-22 12:37 | 27.57316 | 40.94805 | 37984 ft | 384 kts | 278° |
| 2026-04-22 12:38 | 27.58481 | 40.88969 | 37982 ft | 384 kts | 278° |
| 2026-04-22 12:38 | 27.59650 | 40.83090 | 37976 ft | 384 kts | 278° |
| 2026-04-22 12:39 | 27.61399 | 40.74270 | 37977 ft | 384 kts | 278° |
| 2026-04-22 12:40 | 27.62556 | 40.68424 | 37979 ft | 384 kts | 278° |
| 2026-04-22 12:40 | 27.63718 | 40.62540 | 37977 ft | 384 kts | 277° |
| 2026-04-22 12:41 | 27.64101 | 40.60595 | 37978 ft | 384 kts | 277° |